Time;durP1;ratioP1;P1;durP2;ratioP2;P2;SDS_P1;SDS_P2;PMS_P1;PMS_P2;Temp;Humidity;BMP_temperature;BMP_pressure;BME280_temperature;BME280_humidity;BME280_pressure;Samples;Min_cycle;Max_cycle;Signal;HPM_P1;HPM_P2
2023/12/05 00:00:46;;;;;;;42.08;20.98;;;;;;;;;;2090470;28;20049;-57
2023/12/05 00:01:47;;;;;;;45.72;23.98;;;;;;;;;;2089457;28;20049;-58
2023/12/05 00:02:48;;;;;;;40.72;21.10;;;;;;;;;;2089559;28;20048;-59
2023/12/05 00:03:49;;;;;;;44.03;22.63;;;;;;;;;;2091310;28;20049;-56
2023/12/05 00:04:50;;;;;;;43.95;25.40;;;;;;;;;;2091090;28;20382;-57
2023/12/05 00:05:51;;;;;;;41.25;23.42;;;;;;;;;;2090991;28;20489;-60
2023/12/05 00:06:52;;;;;;;45.88;25.60;;;;;;;;;;2090782;28;20449;-56
2023/12/05 00:07:52;;;;;;;43.67;24.23;;;;;;;;;;2091024;28;20117;-59
2023/12/05 00:08:53;;;;;;;38.97;21.45;;;;;;;;;;2090268;28;20041;-60
2023/12/05 00:09:54;;;;;;;40.80;22.33;;;;;;;;;;2089855;28;20100;-60
2023/12/05 00:10:54;;;;;;;40.65;23.23;;;;;;;;;;2090502;28;20025;-60
2023/12/05 00:11:55;;;;;;;44.25;23.92;;;;;;;;;;2090602;28;20052;-57
2023/12/05 00:12:56;;;;;;;39.05;19.98;;;;;;;;;;2090302;28;20073;-58
2023/12/05 00:13:57;;;;;;;40.08;20.23;;;;;;;;;;2090676;28;20044;-59
2023/12/05 00:14:57;;;;;;;42.75;23.30;;;;;;;;;;2090072;28;20029;-56
2023/12/05 00:15:58;;;;;;;42.33;21.95;;;;;;;;;;2090086;28;20032;-57
2023/12/05 00:16:59;;;;;;;41.25;24.95;;;;;;;;;;2090088;28;20053;-57
2023/12/05 00:17:59;;;;;;;42.70;24.17;;;;;;;;;;2090051;28;20059;-56
2023/12/05 00:19:00;;;;;;;40.88;22.00;;;;;;;;;;2090096;28;20025;-56
2023/12/05 00:20:01;;;;;;;38.45;21.42;;;;;;;;;;2089885;28;20068;-56
2023/12/05 00:21:02;;;;;;;41.10;20.30;;;;;;;;;;2090200;28;20449;-56
2023/12/05 00:22:02;;;;;;;37.95;22.30;;;;;;;;;;2090236;28;20392;-56
2023/12/05 00:23:03;;;;;;;37.65;20.20;;;;;;;;;;2090229;28;20052;-56
2023/12/05 00:24:04;;;;;;;37.35;20.45;;;;;;;;;;2090110;28;20454;-56
2023/12/05 00:25:05;;;;;;;42.45;22.35;;;;;;;;;;2090158;28;20053;-57
2023/12/05 00:26:06;;;;;;;41.97;22.42;;;;;;;;;;2090070;28;20044;-56
2023/12/05 00:27:07;;;;;;;43.80;22.65;;;;;;;;;;2090336;28;20330;-56
2023/12/05 00:28:07;;;;;;;40.55;21.95;;;;;;;;;;2090090;28;20045;-56
2023/12/05 00:29:08;;;;;;;44.85;23.67;;;;;;;;;;2090208;28;20052;-57
2023/12/05 00:30:09;;;;;;;43.15;23.98;;;;;;;;;;2090030;28;20068;-56
2023/12/05 00:31:10;;;;;;;41.08;22.48;;;;;;;;;;2089872;28;20041;-56
2023/12/05 00:32:10;;;;;;;35.20;19.42;;;;;;;;;;2090477;28;20041;-56
2023/12/05 00:33:11;;;;;;;38.28;20.05;;;;;;;;;;2092063;28;20025;-57
2023/12/05 00:34:12;;;;;;;41.72;22.75;;;;;;;;;;2091948;28;20029;-56
2023/12/05 00:35:14;;;;;;;43.33;22.55;;;;;;;;;;2091855;28;20029;-56
2023/12/05 00:36:15;;;;;;;34.70;19.85;;;;;;;;;;2091849;28;20499;-56
2023/12/05 00:37:16;;;;;;;30.38;13.65;;;;;;;;;;2091451;28;20049;-57
2023/12/05 00:38:16;;;;;;;44.00;24.52;;;;;;;;;;2091799;28;20053;-57
2023/12/05 00:39:17;;;;;;;30.52;10.75;;;;;;;;;;2091663;28;20124;-57
2023/12/05 00:40:18;;;;;;;42.67;22.50;;;;;;;;;;2091651;28;20040;-57
2023/12/05 00:41:18;;;;;;;33.92;19.33;;;;;;;;;;2091703;28;20411;-57
2023/12/05 00:42:19;;;;;;;41.15;23.52;;;;;;;;;;2091686;28;20056;-56
2023/12/05 00:43:20;;;;;;;42.35;22.88;;;;;;;;;;2090585;28;20061;-57
2023/12/05 00:44:21;;;;;;;46.58;26.95;;;;;;;;;;2091940;28;20036;-56
2023/12/05 00:45:22;;;;;;;46.67;26.45;;;;;;;;;;2091710;28;20124;-57
2023/12/05 00:46:23;;;;;;;47.80;25.45;;;;;;;;;;2091944;28;20036;-57
2023/12/05 00:47:23;;;;;;;47.05;27.42;;;;;;;;;;2091686;28;20409;-57
2023/12/05 00:48:24;;;;;;;50.78;27.13;;;;;;;;;;2091771;28;20515;-57
2023/12/05 00:49:25;;;;;;;44.92;27.08;;;;;;;;;;2091412;28;20037;-57
2023/12/05 00:50:25;;;;;;;46.08;26.65;;;;;;;;;;2092018;28;20044;-57
2023/12/05 00:51:26;;;;;;;46.33;23.88;;;;;;;;;;2091517;28;20037;-57
2023/12/05 00:52:27;;;;;;;48.40;27.23;;;;;;;;;;2091763;28;20033;-57
2023/12/05 00:53:28;;;;;;;41.50;22.02;;;;;;;;;;2091718;28;20037;-56
2023/12/05 00:54:28;;;;;;;35.47;20.30;;;;;;;;;;2091687;28;20389;-57
2023/12/05 00:55:29;;;;;;;40.53;21.33;;;;;;;;;;2091812;28;20476;-57
2023/12/05 00:56:30;;;;;;;44.45;25.77;;;;;;;;;;2091711;28;20045;-57
2023/12/05 00:57:31;;;;;;;47.42;26.38;;;;;;;;;;2091259;28;20417;-57
2023/12/05 00:58:31;;;;;;;46.78;26.88;;;;;;;;;;2091376;28;20036;-57
2023/12/05 00:59:32;;;;;;;44.22;24.00;;;;;;;;;;2091868;28;20029;-57
2023/12/05 01:00:33;;;;;;;49.53;27.52;;;;;;;;;;2091846;28;20032;-57
2023/12/05 01:01:34;;;;;;;44.03;25.38;;;;;;;;;;2091548;28;20057;-57
2023/12/05 01:02:34;;;;;;;44.58;26.50;;;;;;;;;;2091354;28;20056;-56
2023/12/05 01:03:35;;;;;;;46.95;27.83;;;;;;;;;;2091418;28;20037;-57
2023/12/05 01:04:36;;;;;;;49.92;27.95;;;;;;;;;;2091438;28;20531;-57
2023/12/05 01:05:37;;;;;;;48.45;28.33;;;;;;;;;;2091842;28;20033;-57
2023/12/05 01:06:38;;;;;;;49.90;26.73;;;;;;;;;;2091444;28;20040;-57
2023/12/05 01:07:38;;;;;;;43.63;26.27;;;;;;;;;;2091724;28;20056;-57
2023/12/05 01:08:39;;;;;;;47.85;28.92;;;;;;;;;;2091550;28;20049;-57
2023/12/05 01:09:40;;;;;;;44.78;26.55;;;;;;;;;;2091398;28;20032;-57
2023/12/05 01:10:41;;;;;;;48.28;27.83;;;;;;;;;;2091807;28;20028;-57
2023/12/05 01:11:41;;;;;;;50.63;28.25;;;;;;;;;;2091650;28;20036;-56
2023/12/05 01:12:42;;;;;;;46.67;29.17;;;;;;;;;;2091808;28;20488;-57
2023/12/05 01:13:43;;;;;;;44.30;26.67;;;;;;;;;;2091556;28;20033;-56
2023/12/05 01:14:44;;;;;;;45.97;28.40;;;;;;;;;;2091699;28;20116;-57
2023/12/05 01:15:44;;;;;;;50.97;30.33;;;;;;;;;;2091261;28;20037;-57
2023/12/05 01:16:45;;;;;;;47.05;27.15;;;;;;;;;;2091500;28;20036;-58
2023/12/05 01:17:46;;;;;;;43.67;26.42;;;;;;;;;;2092091;28;20068;-58
2023/12/05 01:18:46;;;;;;;47.40;28.65;;;;;;;;;;2091533;28;20048;-57
2023/12/05 01:19:47;;;;;;;58.80;28.52;;;;;;;;;;2091694;28;20040;-57
2023/12/05 01:20:48;;;;;;;161.82;39.72;;;;;;;;;;2091554;28;20401;-57
2023/12/05 01:21:49;;;;;;;51.63;30.10;;;;;;;;;;2091418;28;20025;-57
2023/12/05 01:22:49;;;;;;;49.63;29.60;;;;;;;;;;2091496;28;20093;-57
2023/12/05 01:23:50;;;;;;;47.00;29.13;;;;;;;;;;2091595;28;20491;-57
2023/12/05 01:24:58;;;;;;;43.90;27.33;;;;;;;;;;2091425;28;20056;-57
2023/12/05 01:25:59;;;;;;;47.35;29.05;;;;;;;;;;2091651;28;20044;-57
2023/12/05 01:26:59;;;;;;;48.25;29.52;;;;;;;;;;2091547;28;20025;-56
2023/12/05 01:28:00;;;;;;;44.45;26.90;;;;;;;;;;2091508;28;20033;-56
2023/12/05 01:29:02;;;;;;;40.65;23.38;;;;;;;;;;2091404;28;20036;-57
2023/12/05 01:30:04;;;;;;;43.95;24.55;;;;;;;;;;2091393;28;20385;-57
2023/12/05 01:31:05;;;;;;;42.78;23.33;;;;;;;;;;2090970;28;20056;-57
2023/12/05 01:32:06;;;;;;;41.35;23.15;;;;;;;;;;2091632;28;20098;-56
2023/12/05 01:33:06;;;;;;;44.25;27.88;;;;;;;;;;2091368;28;20059;-57
2023/12/05 01:34:07;;;;;;;41.80;24.27;;;;;;;;;;2091343;28;20130;-57
2023/12/05 01:35:08;;;;;;;46.47;28.27;;;;;;;;;;2091678;28;20428;-57
2023/12/05 01:36:10;;;;;;;46.33;28.48;;;;;;;;;;2090953;28;20150;-57
2023/12/05 01:37:10;;;;;;;49.10;28.10;;;;;;;;;;2090760;28;20052;-57
2023/12/05 01:38:11;;;;;;;42.67;23.98;;;;;;;;;;2091460;28;20032;-57
2023/12/05 01:39:13;;;;;;;49.35;30.75;;;;;;;;;;2091328;28;20045;-57
2023/12/05 01:40:13;;;;;;;41.15;22.60;;;;;;;;;;2091488;28;20037;-57
2023/12/05 01:41:14;;;;;;;43.55;24.38;;;;;;;;;;2090949;28;20045;-56
2023/12/05 01:42:15;;;;;;;45.72;24.38;;;;;;;;;;2091513;28;20037;-56
2023/12/05 01:43:15;;;;;;;47.53;27.23;;;;;;;;;;2090372;28;20374;-56
2023/12/05 01:44:16;;;;;;;47.67;24.92;;;;;;;;;;2090506;28;20496;-57
2023/12/05 01:45:17;;;;;;;43.65;24.23;;;;;;;;;;2090596;28;20045;-56
2023/12/05 01:46:20;;;;;;;49.30;26.60;;;;;;;;;;2091739;28;20045;-57
2023/12/05 01:47:20;;;;;;;43.63;24.35;;;;;;;;;;2091139;28;20041;-57
2023/12/05 01:48:21;;;;;;;43.97;25.55;;;;;;;;;;2090592;28;20033;-57
2023/12/05 01:49:22;;;;;;;48.28;28.40;;;;;;;;;;2098964;28;20488;-57
2023/12/05 01:50:25;;;;;;;43.95;24.33;;;;;;;;;;2106916;28;20044;-57
2023/12/05 01:51:26;;;;;;;45.80;25.40;;;;;;;;;;2091325;28;20040;-57
2023/12/05 01:52:27;;;;;;;46.90;27.73;;;;;;;;;;2090736;28;20029;-57
2023/12/05 01:53:28;;;;;;;44.10;25.98;;;;;;;;;;2090137;28;20462;-57
2023/12/05 01:54:28;;;;;;;42.58;24.63;;;;;;;;;;2091121;28;20048;-57
2023/12/05 01:55:29;;;;;;;42.25;23.92;;;;;;;;;;2090757;28;20385;-57
2023/12/05 01:56:30;;;;;;;43.25;24.33;;;;;;;;;;2098386;28;20041;-57
2023/12/05 01:57:31;;;;;;;44.50;24.70;;;;;;;;;;2106511;28;20052;-57
2023/12/05 01:58:32;;;;;;;43.83;25.00;;;;;;;;;;2082283;28;20033;-57
2023/12/05 01:59:33;;;;;;;44.22;26.35;;;;;;;;;;2074229;28;20418;-57
2023/12/05 02:00:34;;;;;;;45.25;27.23;;;;;;;;;;2098116;28;20063;-57
2023/12/05 02:01:35;;;;;;;47.13;28.13;;;;;;;;;;2107402;28;20056;-57
2023/12/05 02:02:36;;;;;;;43.70;24.90;;;;;;;;;;2090044;28;20052;-57
2023/12/05 02:03:37;;;;;;;45.58;26.38;;;;;;;;;;2090777;28;20036;-57
2023/12/05 02:04:38;;;;;;;49.65;29.33;;;;;;;;;;2081585;28;20053;-57
2023/12/05 02:05:39;;;;;;;49.28;29.30;;;;;;;;;;2090470;28;20358;-57
2023/12/05 02:06:39;;;;;;;42.85;25.90;;;;;;;;;;2091289;28;20064;-57
2023/12/05 02:07:40;;;;;;;47.17;27.05;;;;;;;;;;2090908;28;20033;-57
2023/12/05 02:08:42;;;;;;;47.75;25.13;;;;;;;;;;2090420;28;20397;-58
2023/12/05 02:09:43;;;;;;;44.60;27.52;;;;;;;;;;2091127;28;20134;-57
2023/12/05 02:10:43;;;;;;;48.95;29.35;;;;;;;;;;2090977;28;20091;-57
2023/12/05 02:11:44;;;;;;;48.80;29.42;;;;;;;;;;2091199;28;20119;-58
2023/12/05 02:12:46;;;;;;;45.83;28.77;;;;;;;;;;2091115;28;20021;-58
2023/12/05 02:13:46;;;;;;;53.00;29.58;;;;;;;;;;2091157;28;20423;-57
2023/12/05 02:14:47;;;;;;;47.72;28.33;;;;;;;;;;2090902;28;20047;-58
2023/12/05 02:15:48;;;;;;;50.00;29.45;;;;;;;;;;2090963;28;20044;-58
2023/12/05 02:17:01;;;;;;;48.65;29.20;;;;;;;;;;2090762;28;20033;-57
2023/12/05 02:18:20;;;;;;;46.60;29.38;;;;;;;;;;2084108;28;20480;-57
2023/12/05 02:19:24;;;;;;;44.45;26.90;;;;;;;;;;2090521;28;20460;-57
2023/12/05 02:20:30;;;;;;;47.00;27.73;;;;;;;;;;2090733;28;20045;-59
2023/12/05 02:21:32;;;;;;;42.83;23.83;;;;;;;;;;2090864;28;20037;-58
2023/12/05 02:22:45;;;;;;;49.25;29.90;;;;;;;;;;2090723;28;20052;-58
2023/12/05 02:23:58;;;;;;;42.92;23.45;;;;;;;;;;2090814;28;20408;-58
2023/12/05 02:25:17;;;;;;;46.42;26.05;;;;;;;;;;2090755;28;20033;-58
2023/12/05 02:26:17;;;;;;;43.35;23.75;;;;;;;;;;2091257;28;20472;-58
2023/12/05 02:27:19;;;;;;;44.30;25.58;;;;;;;;;;2090741;28;20110;-58
2023/12/05 02:28:20;;;;;;;45.25;27.35;;;;;;;;;;2090257;28;20044;-58
2023/12/05 02:29:21;;;;;;;44.95;26.75;;;;;;;;;;2098036;28;20048;-58
2023/12/05 02:30:24;;;;;;;47.45;27.15;;;;;;;;;;2106242;28;20490;-58
2023/12/05 02:31:25;;;;;;;45.90;27.02;;;;;;;;;;2091054;28;20048;-58
2023/12/05 02:32:26;;;;;;;45.97;26.15;;;;;;;;;;2091117;28;20461;-58
2023/12/05 02:33:26;;;;;;;49.17;27.23;;;;;;;;;;2091329;28;20025;-58
2023/12/05 02:34:27;;;;;;;46.95;26.90;;;;;;;;;;2090815;28;20040;-58
2023/12/05 02:35:28;;;;;;;42.85;26.13;;;;;;;;;;2090471;28;20029;-57
2023/12/05 02:36:32;;;;;;;53.85;29.40;;;;;;;;;;2090687;28;20045;-58
2023/12/05 02:37:34;;;;;;;47.22;26.98;;;;;;;;;;2090775;28;20461;-58
2023/12/05 02:38:39;;;;;;;45.53;26.33;;;;;;;;;;2090776;28;20049;-58
2023/12/05 02:39:46;;;;;;;47.10;27.25;;;;;;;;;;2090186;28;20468;-58
2023/12/05 02:40:50;;;;;;;48.05;27.88;;;;;;;;;;2090571;28;20029;-57
2023/12/05 02:41:52;;;;;;;46.05;27.45;;;;;;;;;;2090786;28;20037;-57
2023/12/05 02:42:52;;;;;;;47.97;28.00;;;;;;;;;;2089863;28;20040;-57
2023/12/05 02:44:06;;;;;;;47.72;27.63;;;;;;;;;;2090446;28;20032;-57
2023/12/05 02:45:07;;;;;;;49.53;28.65;;;;;;;;;;2090303;28;20428;-58
2023/12/05 02:46:08;;;;;;;49.03;29.85;;;;;;;;;;2090108;28;20025;-58
2023/12/05 02:47:09;;;;;;;45.88;26.92;;;;;;;;;;2090143;28;20044;-58
2023/12/05 02:48:09;;;;;;;44.35;26.63;;;;;;;;;;2106996;28;20027;-57
2023/12/05 02:49:11;;;;;;;46.22;27.40;;;;;;;;;;2106210;28;20036;-59
2023/12/05 02:50:11;;;;;;;44.35;27.08;;;;;;;;;;2090815;28;20027;-58
2023/12/05 02:51:12;;;;;;;43.60;26.45;;;;;;;;;;2091342;28;20041;-58
2023/12/05 02:52:13;;;;;;;41.08;25.02;;;;;;;;;;2090874;28;20408;-58
2023/12/05 02:53:13;;;;;;;39.88;23.38;;;;;;;;;;2090880;28;20021;-59
2023/12/05 02:54:14;;;;;;;42.85;28.58;;;;;;;;;;2090709;28;20109;-58
2023/12/05 02:55:15;;;;;;;46.47;27.50;;;;;;;;;;2089983;28;20041;-58
2023/12/05 02:56:16;;;;;;;39.72;23.80;;;;;;;;;;2090240;28;20028;-58
2023/12/05 02:57:17;;;;;;;40.30;24.42;;;;;;;;;;2090812;28;20472;-58
2023/12/05 02:58:18;;;;;;;39.47;23.02;;;;;;;;;;2090824;28;20029;-58
2023/12/05 02:59:19;;;;;;;43.25;25.00;;;;;;;;;;2090714;28;20060;-58
2023/12/05 03:00:19;;;;;;;39.17;26.02;;;;;;;;;;2090922;28;20032;-58
2023/12/05 03:01:20;;;;;;;41.20;25.05;;;;;;;;;;2090489;28;20053;-58
2023/12/05 03:02:21;;;;;;;41.00;24.77;;;;;;;;;;2090790;28;20068;-58
2023/12/05 03:03:21;;;;;;;41.33;24.00;;;;;;;;;;2090202;28;20401;-58
2023/12/05 03:04:22;;;;;;;41.53;25.27;;;;;;;;;;2089927;28;20497;-58
2023/12/05 03:05:23;;;;;;;37.50;22.30;;;;;;;;;;2089764;28;20032;-58
2023/12/05 03:06:24;;;;;;;38.95;24.30;;;;;;;;;;2090340;28;20028;-58
2023/12/05 03:07:25;;;;;;;36.58;23.58;;;;;;;;;;2090333;28;20495;-58
2023/12/05 03:08:25;;;;;;;38.40;25.75;;;;;;;;;;2090479;28;20048;-57
2023/12/05 03:09:26;;;;;;;39.95;25.70;;;;;;;;;;2090443;28;20060;-58
2023/12/05 03:10:27;;;;;;;40.92;24.55;;;;;;;;;;2090556;28;20045;-59
2023/12/05 03:11:28;;;;;;;36.15;23.65;;;;;;;;;;2090950;28;20040;-59
2023/12/05 03:12:31;;;;;;;36.25;22.95;;;;;;;;;;2090833;28;20071;-58
2023/12/05 03:13:32;;;;;;;42.20;26.45;;;;;;;;;;2090828;28;20045;-58
2023/12/05 03:14:33;;;;;;;37.80;25.17;;;;;;;;;;2090652;28;20044;-58
2023/12/05 03:15:33;;;;;;;33.92;23.75;;;;;;;;;;2090930;28;20462;-58
2023/12/05 03:16:34;;;;;;;38.30;24.92;;;;;;;;;;2090499;28;20385;-58
2023/12/05 03:17:36;;;;;;;36.45;23.92;;;;;;;;;;2090706;28;20476;-58
2023/12/05 03:18:37;;;;;;;35.83;22.83;;;;;;;;;;2090473;28;20048;-58
2023/12/05 03:19:38;;;;;;;38.85;22.38;;;;;;;;;;2090554;28;20056;-58
2023/12/05 03:20:38;;;;;;;33.85;22.35;;;;;;;;;;2090442;28;20049;-58
2023/12/05 03:21:39;;;;;;;36.03;24.05;;;;;;;;;;2090833;28;20086;-58
2023/12/05 03:22:40;;;;;;;36.25;22.42;;;;;;;;;;2090428;28;20461;-58
2023/12/05 03:23:41;;;;;;;34.58;20.50;;;;;;;;;;2090446;28;20400;-58
2023/12/05 03:24:41;;;;;;;33.20;20.80;;;;;;;;;;2090918;28;20041;-58
2023/12/05 03:25:42;;;;;;;37.00;22.55;;;;;;;;;;2090699;28;20044;-58
2023/12/05 03:26:43;;;;;;;34.67;21.38;;;;;;;;;;2089940;28;20036;-58
2023/12/05 03:27:44;;;;;;;32.55;20.40;;;;;;;;;;2089882;28;20040;-58
2023/12/05 03:28:44;;;;;;;33.63;19.95;;;;;;;;;;2090466;28;20045;-58
2023/12/05 03:29:45;;;;;;;34.03;22.65;;;;;;;;;;2090390;28;20028;-58
2023/12/05 03:30:46;;;;;;;39.38;23.55;;;;;;;;;;2090615;28;20048;-58
2023/12/05 03:31:46;;;;;;;34.75;21.83;;;;;;;;;;2090454;28;20032;-58
2023/12/05 03:32:47;;;;;;;36.05;21.98;;;;;;;;;;2090445;28;20040;-58
2023/12/05 03:33:48;;;;;;;37.33;20.48;;;;;;;;;;2090358;28;20453;-58
2023/12/05 03:34:48;;;;;;;36.67;22.08;;;;;;;;;;2090318;28;20512;-58
2023/12/05 03:35:49;;;;;;;34.42;20.55;;;;;;;;;;2090678;28;20029;-58
2023/12/05 03:36:50;;;;;;;32.80;19.25;;;;;;;;;;2090383;28;20040;-58
2023/12/05 03:37:51;;;;;;;33.55;18.85;;;;;;;;;;2090429;28;20033;-58
2023/12/05 03:38:51;;;;;;;30.60;18.23;;;;;;;;;;2090372;28;20041;-58
2023/12/05 03:39:52;;;;;;;35.03;19.90;;;;;;;;;;2090231;28;20036;-58
2023/12/05 03:40:53;;;;;;;34.72;21.77;;;;;;;;;;2090558;28;20485;-57
2023/12/05 03:41:53;;;;;;;34.90;21.38;;;;;;;;;;2090329;28;20040;-58
2023/12/05 03:42:54;;;;;;;31.27;20.33;;;;;;;;;;2089685;28;20033;-57
2023/12/05 03:43:55;;;;;;;35.15;20.48;;;;;;;;;;2090194;28;20043;-58
2023/12/05 03:44:56;;;;;;;36.85;22.75;;;;;;;;;;2090612;28;20048;-58
2023/12/05 03:45:56;;;;;;;36.15;20.27;;;;;;;;;;2090370;28;20081;-58
2023/12/05 03:46:57;;;;;;;28.98;19.20;;;;;;;;;;2090308;28;20500;-58
2023/12/05 03:47:58;;;;;;;34.72;20.45;;;;;;;;;;2090398;28;20033;-58
2023/12/05 03:48:58;;;;;;;32.10;21.10;;;;;;;;;;2090587;28;20048;-58
2023/12/05 03:49:59;;;;;;;32.35;19.27;;;;;;;;;;2090203;28;20042;-58
2023/12/05 03:51:00;;;;;;;33.45;20.10;;;;;;;;;;2090392;28;20072;-59
2023/12/05 03:52:01;;;;;;;32.47;19.23;;;;;;;;;;2090268;28;20028;-58
2023/12/05 03:53:02;;;;;;;31.45;18.63;;;;;;;;;;2090323;28;20033;-58
2023/12/05 03:54:02;;;;;;;35.28;19.20;;;;;;;;;;2090826;28;20488;-57
2023/12/05 03:55:03;;;;;;;36.08;20.75;;;;;;;;;;2089985;28;20041;-58
2023/12/05 03:56:04;;;;;;;38.13;21.88;;;;;;;;;;2090220;28;20040;-58
2023/12/05 03:57:05;;;;;;;31.40;17.95;;;;;;;;;;2090198;28;20040;-58
2023/12/05 03:58:06;;;;;;;29.30;18.75;;;;;;;;;;2090253;28;20075;-58
2023/12/05 03:59:06;;;;;;;32.20;19.80;;;;;;;;;;2090582;28;20081;-58
2023/12/05 04:00:09;;;;;;;35.03;21.80;;;;;;;;;;2090365;28;20140;-57
2023/12/05 04:01:13;;;;;;;33.53;20.67;;;;;;;;;;2090044;28;20040;-58
2023/12/05 04:02:14;;;;;;;32.42;20.95;;;;;;;;;;2090271;28;20055;-58
2023/12/05 04:03:15;;;;;;;32.83;18.25;;;;;;;;;;2090623;28;20384;-58
2023/12/05 04:04:15;;;;;;;31.00;18.20;;;;;;;;;;2090214;28;20526;-58
2023/12/05 04:05:16;;;;;;;32.40;19.38;;;;;;;;;;2090487;28;20377;-58
2023/12/05 04:06:20;;;;;;;33.45;17.60;;;;;;;;;;2090145;28;20132;-58
2023/12/05 04:07:21;;;;;;;34.28;19.98;;;;;;;;;;2089770;28;20044;-58
2023/12/05 04:08:22;;;;;;;33.70;21.27;;;;;;;;;;2090128;28;20059;-58
2023/12/05 04:09:23;;;;;;;35.75;21.88;;;;;;;;;;2090515;28;20342;-58
2023/12/05 04:10:23;;;;;;;34.03;22.42;;;;;;;;;;2090201;28;20044;-58
2023/12/05 04:11:27;;;;;;;33.67;22.50;;;;;;;;;;2089940;28;20057;-58
2023/12/05 04:12:28;;;;;;;31.48;19.58;;;;;;;;;;2090191;28;20059;-58
2023/12/05 04:13:29;;;;;;;35.33;21.00;;;;;;;;;;2090417;28;20045;-58
2023/12/05 04:14:29;;;;;;;34.15;21.08;;;;;;;;;;2090382;28;20028;-58
2023/12/05 04:15:30;;;;;;;36.63;22.45;;;;;;;;;;2089792;28;20045;-58
2023/12/05 04:16:31;;;;;;;34.75;20.40;;;;;;;;;;2090432;28;20036;-58
2023/12/05 04:17:32;;;;;;;32.65;18.48;;;;;;;;;;2090070;28;20049;-57
2023/12/05 04:18:32;;;;;;;33.25;18.15;;;;;;;;;;2090149;28;20370;-57
2023/12/05 04:19:33;;;;;;;33.22;19.30;;;;;;;;;;2090117;28;20040;-58
2023/12/05 04:20:34;;;;;;;33.70;20.65;;;;;;;;;;2090256;28;20041;-58
2023/12/05 04:21:34;;;;;;;33.47;18.38;;;;;;;;;;2090252;28;20389;-58
2023/12/05 04:22:35;;;;;;;35.53;20.50;;;;;;;;;;2090303;28;20036;-58
2023/12/05 04:23:36;;;;;;;34.20;20.83;;;;;;;;;;2090427;28;20044;-58
2023/12/05 04:24:37;;;;;;;36.30;21.52;;;;;;;;;;2090312;28;20036;-58
2023/12/05 04:25:38;;;;;;;32.80;20.95;;;;;;;;;;2090386;28;20095;-59
2023/12/05 04:26:38;;;;;;;30.23;18.23;;;;;;;;;;2089785;28;20377;-58
2023/12/05 04:27:39;;;;;;;33.22;18.63;;;;;;;;;;2090425;28;20461;-59
2023/12/05 04:28:40;;;;;;;30.42;18.92;;;;;;;;;;2090292;28;20417;-59
2023/12/05 04:29:42;;;;;;;34.72;21.77;;;;;;;;;;2090144;28;20485;-58
2023/12/05 04:30:42;;;;;;;37.80;22.27;;;;;;;;;;2090127;28;20401;-58
2023/12/05 04:31:43;;;;;;;35.60;22.27;;;;;;;;;;2090287;28;20032;-59
2023/12/05 04:32:44;;;;;;;35.13;22.48;;;;;;;;;;2090075;28;20037;-59
2023/12/05 04:33:44;;;;;;;36.95;21.60;;;;;;;;;;2090221;28;20041;-59
2023/12/05 04:34:45;;;;;;;26.92;17.40;;;;;;;;;;2090415;28;20061;-59
2023/12/05 04:35:46;;;;;;;33.33;19.40;;;;;;;;;;2090167;28;20060;-59
2023/12/05 04:36:47;;;;;;;31.20;18.17;;;;;;;;;;2090107;28;20404;-58
2023/12/05 04:37:47;;;;;;;30.17;18.92;;;;;;;;;;2090023;28;20488;-59
2023/12/05 04:38:48;;;;;;;32.60;20.42;;;;;;;;;;2090094;28;20041;-58
2023/12/05 04:39:49;;;;;;;36.85;22.73;;;;;;;;;;2090362;28;20066;-59
2023/12/05 04:40:49;;;;;;;36.90;22.27;;;;;;;;;;2090126;28;20044;-59
2023/12/05 04:41:50;;;;;;;32.28;20.80;;;;;;;;;;2090184;28;20048;-59
2023/12/05 04:42:51;;;;;;;36.75;23.08;;;;;;;;;;2090473;28;20041;-59
2023/12/05 04:43:52;;;;;;;36.55;22.30;;;;;;;;;;2088440;28;20036;-58
2023/12/05 04:44:52;;;;;;;33.47;21.70;;;;;;;;;;2089246;28;20499;-59
2023/12/05 04:45:53;;;;;;;35.00;22.50;;;;;;;;;;2090234;28;20388;-59
2023/12/05 04:46:54;;;;;;;36.17;23.35;;;;;;;;;;2090324;28;20469;-59
2023/12/05 04:47:55;;;;;;;38.28;24.02;;;;;;;;;;2089890;28;20041;-59
2023/12/05 04:48:55;;;;;;;39.72;24.48;;;;;;;;;;2090207;28;20068;-59
2023/12/05 04:49:56;;;;;;;39.15;24.38;;;;;;;;;;2090120;28;20045;-59
2023/12/05 04:50:57;;;;;;;45.00;25.75;;;;;;;;;;2090340;28;20381;-59
2023/12/05 04:51:58;;;;;;;51.20;26.23;;;;;;;;;;2089934;28;20049;-59
2023/12/05 04:52:58;;;;;;;46.55;26.42;;;;;;;;;;2089833;28;20032;-59
2023/12/05 04:53:59;;;;;;;54.15;27.42;;;;;;;;;;2089925;28;20025;-58
2023/12/05 04:55:00;;;;;;;53.47;27.35;;;;;;;;;;2089986;28;20136;-59
2023/12/05 04:56:00;;;;;;;56.25;27.33;;;;;;;;;;2090082;28;20385;-58
2023/12/05 04:57:02;;;;;;;52.05;28.13;;;;;;;;;;2090168;28;20033;-59
2023/12/05 04:58:02;;;;;;;53.33;29.23;;;;;;;;;;2090108;28;20036;-59
2023/12/05 04:59:03;;;;;;;59.70;30.40;;;;;;;;;;2090285;28;20509;-58
2023/12/05 05:00:05;;;;;;;56.33;29.85;;;;;;;;;;2090167;28;20060;-58
2023/12/05 05:01:06;;;;;;;56.05;30.40;;;;;;;;;;2090057;28;20041;-58
2023/12/05 05:02:06;;;;;;;53.70;29.23;;;;;;;;;;2090022;28;20517;-58
2023/12/05 05:03:07;;;;;;;50.63;28.52;;;;;;;;;;2089705;28;20485;-58
2023/12/05 05:04:08;;;;;;;55.88;28.77;;;;;;;;;;2089469;28;20071;-58
2023/12/05 05:05:09;;;;;;;54.17;28.33;;;;;;;;;;2089637;28;20037;-58
2023/12/05 05:06:10;;;;;;;51.38;27.80;;;;;;;;;;2090165;28;20503;-58
2023/12/05 05:07:11;;;;;;;49.15;26.08;;;;;;;;;;2089813;28;20128;-58
2023/12/05 05:08:12;;;;;;;51.08;29.42;;;;;;;;;;2090063;28;20025;-58
2023/12/05 05:09:12;;;;;;;49.88;27.95;;;;;;;;;;2090044;28;20112;-58
2023/12/05 05:10:13;;;;;;;49.00;29.90;;;;;;;;;;2090244;28;20029;-59
2023/12/05 05:11:14;;;;;;;47.30;25.50;;;;;;;;;;2090415;28;20067;-59
2023/12/05 05:12:15;;;;;;;46.85;26.75;;;;;;;;;;2090066;28;20041;-58
2023/12/05 05:13:15;;;;;;;55.50;28.25;;;;;;;;;;2090171;28;20051;-59
2023/12/05 05:14:16;;;;;;;46.30;25.60;;;;;;;;;;2089123;28;20120;-58
2023/12/05 05:15:17;;;;;;;46.72;27.50;;;;;;;;;;2089357;28;20116;-59
2023/12/05 05:16:17;;;;;;;46.53;25.48;;;;;;;;;;2089973;28;20064;-59
2023/12/05 05:17:18;;;;;;;44.50;23.52;;;;;;;;;;2090066;28;20389;-59
2023/12/05 05:18:19;;;;;;;43.42;25.17;;;;;;;;;;2090071;28;20037;-59
2023/12/05 05:19:19;;;;;;;41.85;24.83;;;;;;;;;;2090504;28;20048;-59
2023/12/05 05:20:20;;;;;;;41.53;26.55;;;;;;;;;;2091818;28;20049;-62
2023/12/05 05:21:21;;;;;;;45.00;24.73;;;;;;;;;;2091664;28;20033;-59
2023/12/05 05:22:22;;;;;;;37.22;20.77;;;;;;;;;;2091352;28;20060;-59
2023/12/05 05:23:22;;;;;;;44.40;26.52;;;;;;;;;;2091680;28;20063;-59
2023/12/05 05:24:23;;;;;;;45.78;25.77;;;;;;;;;;2091341;28;20040;-59
2023/12/05 05:25:24;;;;;;;45.85;24.30;;;;;;;;;;2091374;28;20049;-58
2023/12/05 05:26:25;;;;;;;47.58;24.27;;;;;;;;;;2091543;28;20051;-58
2023/12/05 05:27:25;;;;;;;42.65;22.00;;;;;;;;;;2091476;28;20045;-59
2023/12/05 05:28:26;;;;;;;40.53;20.73;;;;;;;;;;2091436;28;20428;-58
2023/12/05 05:29:27;;;;;;;36.03;19.98;;;;;;;;;;2091641;28;20037;-58
2023/12/05 05:30:28;;;;;;;29.13;18.40;;;;;;;;;;2091437;28;20477;-58
2023/12/05 05:31:28;;;;;;;41.22;24.00;;;;;;;;;;2091566;28;20028;-58
2023/12/05 05:32:30;;;;;;;42.38;25.55;;;;;;;;;;2091756;28;20037;-58
2023/12/05 05:33:30;;;;;;;48.95;24.98;;;;;;;;;;2091495;28;20480;-58
2023/12/05 05:34:31;;;;;;;43.13;24.10;;;;;;;;;;2091510;28;20044;-58
2023/12/05 05:35:32;;;;;;;39.20;20.85;;;;;;;;;;2091338;28;20050;-58
2023/12/05 05:36:33;;;;;;;39.72;20.70;;;;;;;;;;2091694;28;20075;-58
2023/12/05 05:37:33;;;;;;;38.33;22.65;;;;;;;;;;2091431;28;20060;-58
2023/12/05 05:38:34;;;;;;;40.60;24.38;;;;;;;;;;2091315;28;20044;-57
2023/12/05 05:39:35;;;;;;;39.28;23.17;;;;;;;;;;2091228;28;20057;-58
2023/12/05 05:40:36;;;;;;;46.63;24.83;;;;;;;;;;2091276;28;20041;-58
2023/12/05 05:41:37;;;;;;;38.25;21.30;;;;;;;;;;2091386;28;20041;-58
2023/12/05 05:42:37;;;;;;;41.78;23.05;;;;;;;;;;2091439;28;20040;-58
2023/12/05 05:43:38;;;;;;;43.95;22.80;;;;;;;;;;2090337;28;20037;-58
2023/12/05 05:44:39;;;;;;;42.72;23.75;;;;;;;;;;2091260;28;20488;-58
2023/12/05 05:45:40;;;;;;;46.78;23.63;;;;;;;;;;2091263;28;20056;-58
2023/12/05 05:46:40;;;;;;;45.42;23.38;;;;;;;;;;2090834;28;20045;-58
2023/12/05 05:47:41;;;;;;;46.83;23.33;;;;;;;;;;2090437;28;20037;-58
2023/12/05 05:48:42;;;;;;;46.33;24.75;;;;;;;;;;2091234;28;20067;-58
2023/12/05 05:49:43;;;;;;;48.13;24.60;;;;;;;;;;2091697;28;20061;-57
2023/12/05 05:50:43;;;;;;;46.58;24.85;;;;;;;;;;2091758;28;20037;-60
2023/12/05 05:51:44;;;;;;;58.15;25.58;;;;;;;;;;2092508;28;20400;-60
2023/12/05 05:52:45;;;;;;;48.70;23.65;;;;;;;;;;2091708;28;20025;-57
2023/12/05 05:53:46;;;;;;;42.78;20.90;;;;;;;;;;2092083;28;20021;-68
2023/12/05 05:54:50;;;;;;;43.15;23.02;;;;;;;;;;2091429;28;20049;-58
2023/12/05 05:55:51;;;;;;;47.10;22.75;;;;;;;;;;2091862;28;20468;-57